createdAt,value
2017-09-19T05:53:09.178Z,1010.14
2017-09-19T05:53:49.715Z,1010.18
2017-09-19T05:54:30.235Z,1010.16
2017-09-19T05:55:10.768Z,1010.23
2017-09-19T05:55:51.298Z,1010.19
2017-09-19T05:56:31.830Z,1010.25
2017-09-19T05:57:12.348Z,1010.23
2017-09-19T05:57:52.884Z,1010.24
2017-09-19T05:58:33.412Z,1010.24
2017-09-19T05:59:13.950Z,1010.23
2017-09-19T05:59:54.480Z,1010.26
2017-09-19T06:00:35.009Z,1010.27
2017-09-19T06:01:15.537Z,1010.28
2017-09-19T06:01:56.076Z,1010.33
2017-09-19T06:02:36.602Z,1010.29
2017-09-19T06:03:17.140Z,1010.33
2017-09-19T06:03:57.668Z,1010.3
2017-09-19T06:04:38.199Z,1010.3
2017-09-19T06:05:18.741Z,1010.31
2017-09-19T06:05:59.257Z,1010.3
2017-09-19T06:06:39.808Z,1010.29
2017-09-19T06:07:20.334Z,1010.29
2017-09-19T06:08:00.867Z,1010.31
2017-09-19T06:08:41.400Z,1010.29
2017-09-19T06:09:21.942Z,1010.33
2017-09-19T06:10:02.468Z,1010.33
2017-09-19T06:10:43.009Z,1010.34
2017-09-19T06:11:23.542Z,1010.34
2017-09-19T06:12:04.082Z,1010.34
2017-09-19T06:12:44.614Z,1010.34
2017-09-19T06:13:25.148Z,1010.34
2017-09-19T06:14:05.674Z,1010.32
2017-09-19T06:14:46.212Z,1010.33
2017-09-19T06:15:26.752Z,1010.33
2017-09-19T06:16:07.285Z,1010.34
2017-09-19T06:16:47.812Z,1010.34
2017-09-19T06:17:28.347Z,1010.36
2017-09-19T06:18:08.876Z,1010.34
2017-09-19T06:18:49.421Z,1010.35
2017-09-19T06:19:29.931Z,1010.35
2017-09-19T06:20:10.449Z,1010.34
2017-09-19T06:20:50.982Z,1010.35
2017-09-19T06:21:31.515Z,1010.34
2017-09-19T06:22:12.048Z,1010.36
2017-09-19T06:22:52.562Z,1010.29
2017-09-19T06:23:33.114Z,1010.32
2017-09-19T06:24:13.607Z,1010.33
2017-09-19T06:24:54.126Z,1010.31
2017-09-19T06:25:34.656Z,1010.32
2017-09-19T06:26:15.193Z,1010.34
2017-09-19T06:26:55.732Z,1010.33
2017-09-19T06:27:36.261Z,1010.35
2017-09-19T06:28:16.779Z,1010.29
2017-09-19T06:28:57.315Z,1010.35
2017-09-19T06:29:37.841Z,1010.34
2017-09-19T06:30:18.367Z,1010.38
2017-09-19T06:30:58.879Z,1010.39
2017-09-19T06:31:39.405Z,1010.42
2017-09-19T06:32:19.927Z,1010.42
2017-09-19T06:33:00.461Z,1010.39
2017-09-19T06:33:40.985Z,1010.39
2017-09-19T06:34:21.515Z,1010.4
2017-09-19T06:35:02.013Z,1010.39
2017-09-19T06:35:42.563Z,1010.42
2017-09-19T06:36:23.096Z,1010.45
2017-09-19T06:37:03.626Z,1010.41
2017-09-19T06:37:44.157Z,1010.41
2017-09-19T06:38:24.677Z,1010.43
2017-09-19T06:39:05.272Z,1010.42
2017-09-19T06:39:45.804Z,1010.4
2017-09-19T06:40:26.308Z,1010.42
2017-09-19T06:41:06.818Z,1010.39
2017-09-19T06:41:47.342Z,1010.42
2017-09-19T06:42:27.866Z,1010.45
2017-09-19T06:43:08.410Z,1010.41
2017-09-19T06:43:48.954Z,1010.41
2017-09-19T06:44:29.452Z,1010.4
2017-09-19T06:45:09.969Z,1010.45
2017-09-19T06:45:50.482Z,1010.43
2017-09-19T06:46:31.004Z,1010.44
2017-09-19T06:47:11.545Z,1010.4
2017-09-19T06:47:52.069Z,1010.43
2017-09-19T06:48:32.580Z,1010.42
2017-09-19T06:49:13.114Z,1010.42
2017-09-19T06:49:53.649Z,1010.44
2017-09-19T06:50:34.186Z,1010.44
2017-09-19T06:51:14.713Z,1010.47
2017-09-19T06:51:55.263Z,1010.45
2017-09-19T06:52:35.791Z,1010.46
2017-09-19T06:53:16.329Z,1010.47
2017-09-19T06:53:56.865Z,1010.44
2017-09-19T06:54:37.389Z,1010.44
2017-09-19T06:55:17.926Z,1010.47
2017-09-19T06:55:58.465Z,1010.47
2017-09-19T06:56:39.030Z,1010.46
2017-09-19T06:57:19.533Z,1010.49
2017-09-19T06:58:00.050Z,1010.45
2017-09-19T06:58:40.585Z,1010.44
2017-09-19T06:59:21.154Z,1010.47
2017-09-19T07:00:01.679Z,1010.49
2017-09-19T07:00:42.192Z,1010.47
2017-09-19T07:01:22.731Z,1010.51
2017-09-19T07:02:03.273Z,1010.5
2017-09-19T07:02:43.802Z,1010.52
2017-09-19T07:03:24.336Z,1010.55
2017-09-19T07:04:04.845Z,1010.53
2017-09-19T07:04:45.375Z,1010.55
2017-09-19T07:05:25.914Z,1010.54
2017-09-19T07:06:06.455Z,1010.57
2017-09-19T07:06:46.992Z,1010.55
2017-09-19T07:07:27.537Z,1010.56
2017-09-19T07:08:08.043Z,1010.59
2017-09-19T07:08:48.570Z,1010.62
2017-09-19T07:09:29.110Z,1010.62
2017-09-19T07:10:09.629Z,1010.62
2017-09-19T07:10:50.154Z,1010.65
2017-09-19T07:11:30.677Z,1010.67
2017-09-19T07:12:11.202Z,1010.65
2017-09-19T07:12:51.740Z,1010.65
2017-09-19T07:13:32.246Z,1010.67
2017-09-19T07:14:12.787Z,1010.69
2017-09-19T07:14:53.321Z,1010.69
2017-09-19T07:15:33.852Z,1010.7
2017-09-19T07:16:14.397Z,1010.7
2017-09-19T07:16:54.936Z,1010.75
2017-09-19T07:17:35.475Z,1010.77
2017-09-19T07:18:16.004Z,1010.76
2017-09-19T07:18:56.526Z,1010.73
2017-09-19T07:19:37.063Z,1010.75
2017-09-19T07:20:17.582Z,1010.73
2017-09-19T07:20:58.117Z,1010.76
2017-09-19T07:21:38.642Z,1010.74
2017-09-19T07:22:19.169Z,1010.72
2017-09-19T07:22:59.702Z,1010.74
2017-09-19T07:23:40.232Z,1010.79
2017-09-19T07:24:20.747Z,1010.78
2017-09-19T07:25:01.291Z,1010.77
2017-09-19T07:25:41.823Z,1010.8
2017-09-19T07:26:22.350Z,1010.81
2017-09-19T07:27:02.883Z,1010.8
2017-09-19T07:27:43.414Z,1010.81
2017-09-19T07:28:23.930Z,1010.83
2017-09-19T07:29:04.472Z,1010.81
2017-09-19T07:29:45.011Z,1010.87
2017-09-19T07:30:25.540Z,1010.85
2017-09-19T07:31:06.039Z,1010.88
2017-09-19T07:31:46.569Z,1010.9
2017-09-19T07:32:27.125Z,1010.89
2017-09-19T07:33:07.663Z,1010.86
2017-09-19T07:33:48.202Z,1010.89
2017-09-19T07:34:28.715Z,1010.88
2017-09-19T07:35:09.248Z,1010.91
2017-09-19T07:35:49.786Z,1010.89
2017-09-19T07:36:30.315Z,1010.91
2017-09-19T07:37:10.851Z,1010.89
2017-09-19T07:37:51.387Z,1010.9
2017-09-19T07:38:31.918Z,1010.94
2017-09-19T07:39:12.446Z,1010.91
2017-09-19T07:39:52.998Z,1010.93
2017-09-19T07:40:33.522Z,1010.94
2017-09-19T07:41:14.062Z,1010.96
2017-09-19T07:41:54.608Z,1010.95
2017-09-19T07:42:35.125Z,1010.96
2017-09-19T07:43:15.655Z,1011
2017-09-19T07:43:56.181Z,1010.98
2017-09-19T07:44:36.722Z,1011
2017-09-19T07:45:17.261Z,1010.97
2017-09-19T07:45:57.800Z,1011
2017-09-19T07:46:38.307Z,1011
2017-09-19T07:47:18.838Z,1010.99
2017-09-19T07:47:59.382Z,1011
2017-09-19T07:48:39.909Z,1011
2017-09-19T07:49:20.451Z,1011.04
2017-09-19T07:50:00.986Z,1010.97
2017-09-19T07:50:41.508Z,1011
2017-09-19T07:51:22.091Z,1011.02
2017-09-19T07:52:02.608Z,1011.02
2017-09-19T07:52:43.129Z,1011.05
2017-09-19T07:53:23.663Z,1011.06
2017-09-19T07:54:04.184Z,1011.06
2017-09-19T07:54:44.715Z,1011.08
2017-09-19T07:55:25.241Z,1011.08
2017-09-19T07:56:05.774Z,1011.11
2017-09-19T07:56:46.302Z,1011.06
2017-09-19T07:57:26.813Z,1011.12
2017-09-19T07:58:07.339Z,1011.08
2017-09-19T07:58:47.874Z,1011.09
2017-09-19T07:59:28.409Z,1011.07
2017-09-19T08:00:08.920Z,1011.11
2017-09-19T08:00:49.450Z,1011.08
2017-09-19T08:01:29.988Z,1011.09
2017-09-19T08:02:10.531Z,1011.08
2017-09-19T08:02:51.065Z,1011.05
2017-09-19T08:03:31.585Z,1011.08
2017-09-19T08:04:12.114Z,1011.07
2017-09-19T08:04:52.645Z,1011.13
2017-09-19T08:05:33.175Z,1011.11
2017-09-19T08:06:13.702Z,1011.14
2017-09-19T08:06:54.222Z,1011.13
2017-09-19T08:07:34.759Z,1011.13
2017-09-19T08:08:15.296Z,1011.16
2017-09-19T08:08:55.832Z,1011.11
2017-09-19T08:09:36.361Z,1011.17
2017-09-19T08:10:16.908Z,1011.17
2017-09-19T08:10:57.443Z,1011.17
2017-09-19T08:11:37.965Z,1011.14
2017-09-19T08:12:18.498Z,1011.17
2017-09-19T08:12:59.039Z,1011.16
2017-09-19T08:13:39.565Z,1011.19
2017-09-19T08:14:20.076Z,1011.2
2017-09-19T08:15:00.612Z,1011.2
2017-09-19T08:15:41.148Z,1011.21
2017-09-19T08:16:21.668Z,1011.21
2017-09-19T08:17:02.188Z,1011.21
2017-09-19T08:17:42.707Z,1011.22
2017-09-19T08:18:23.243Z,1011.21
2017-09-19T08:19:03.785Z,1011.26
2017-09-19T08:19:44.347Z,1011.24
2017-09-19T08:20:24.888Z,1011.2
2017-09-19T08:21:05.430Z,1011.23
2017-09-19T08:21:45.962Z,1011.21
2017-09-19T08:22:26.477Z,1011.2
2017-09-19T08:23:07.003Z,1011.22
2017-09-19T08:23:47.526Z,1011.22
2017-09-19T08:24:28.061Z,1011.23
2017-09-19T08:25:08.593Z,1011.25
2017-09-19T08:25:49.110Z,1011.2
2017-09-19T08:26:29.642Z,1011.25
2017-09-19T08:27:10.178Z,1011.24
2017-09-19T08:27:50.701Z,1011.24
2017-09-19T08:28:31.228Z,1011.24
2017-09-19T08:29:11.794Z,1011.25
2017-09-19T08:29:52.308Z,1011.25
2017-09-19T08:30:32.842Z,1011.27
2017-09-19T08:31:13.386Z,1011.26
2017-09-19T08:31:53.907Z,1011.23
2017-09-19T08:32:34.436Z,1011.26
2017-09-19T08:33:14.962Z,1011.24
2017-09-19T08:33:55.500Z,1011.22
2017-09-19T08:34:36.035Z,1011.2
2017-09-19T08:35:16.558Z,1011.24
2017-09-19T08:35:57.064Z,1011.25
2017-09-19T08:36:37.598Z,1011.24
2017-09-19T08:37:18.138Z,1011.22
2017-09-19T08:37:58.675Z,1011.24
2017-09-19T08:38:39.188Z,1011.22
2017-09-19T08:39:19.719Z,1011.23
2017-09-19T08:40:00.239Z,1011.23
2017-09-19T08:40:40.778Z,1011.25
2017-09-19T08:41:21.312Z,1011.23
2017-09-19T08:42:01.837Z,1011.2
2017-09-19T08:42:42.368Z,1011.24
2017-09-19T08:43:22.903Z,1011.25
2017-09-19T08:44:03.444Z,1011.25
2017-09-19T08:44:43.987Z,1011.23
2017-09-19T08:45:24.529Z,1011.21
2017-09-19T08:46:05.040Z,1011.23
2017-09-19T08:46:45.567Z,1011.24
2017-09-19T08:47:26.108Z,1011.24
2017-09-19T08:48:06.646Z,1011.22
2017-09-19T08:48:47.177Z,1011.23
2017-09-19T08:49:27.707Z,1011.28
2017-09-19T08:50:08.255Z,1011.26
2017-09-19T08:50:48.793Z,1011.24
2017-09-19T08:51:29.331Z,1011.3
2017-09-19T08:52:09.867Z,1011.3
2017-09-19T08:52:50.401Z,1011.29
2017-09-19T08:53:30.930Z,1011.32
2017-09-19T08:54:11.476Z,1011.28
2017-09-19T08:54:51.994Z,1011.28
2017-09-19T08:55:32.536Z,1011.29
2017-09-19T08:56:13.068Z,1011.32
2017-09-19T08:56:53.602Z,1011.3
2017-09-19T08:57:34.124Z,1011.34
2017-09-19T08:58:14.662Z,1011.35
2017-09-19T08:58:55.186Z,1011.36
2017-09-19T08:59:35.720Z,1011.31
2017-09-19T09:00:16.262Z,1011.31
2017-09-19T09:00:56.797Z,1011.33
2017-09-19T09:01:37.349Z,1011.32
2017-09-19T09:02:17.872Z,1011.34
2017-09-19T09:02:58.403Z,1011.39
2017-09-19T09:03:38.940Z,1011.38
2017-09-19T09:04:19.482Z,1011.42
2017-09-19T09:05:00.007Z,1011.4
2017-09-19T09:05:40.550Z,1011.35
2017-09-19T09:06:21.084Z,1011.43
2017-09-19T09:07:01.624Z,1011.41
2017-09-19T09:07:42.166Z,1011.29
2017-09-19T09:08:22.689Z,1011.3
2017-09-19T09:09:03.222Z,1011.29
2017-09-19T09:09:43.768Z,1011.28
2017-09-19T09:10:24.313Z,1011.33
2017-09-19T09:11:04.849Z,1011.33
2017-09-19T09:11:45.380Z,1011.38
2017-09-19T09:12:25.913Z,1011.37
2017-09-19T09:13:06.453Z,1011.35
2017-09-19T09:13:47.021Z,1011.34
2017-09-19T09:14:27.517Z,1011.39
2017-09-19T09:15:08.045Z,1011.35
2017-09-19T09:15:48.576Z,1011.3
2017-09-19T09:16:29.112Z,1011.35
2017-09-19T09:17:09.644Z,1011.35
2017-09-19T09:17:50.188Z,1011.35
2017-09-19T09:18:30.747Z,1011.35
2017-09-19T09:19:11.295Z,1011.38
2017-09-19T09:19:51.823Z,1011.37
2017-09-19T09:20:32.372Z,1011.39
2017-09-19T09:21:12.904Z,1011.4
2017-09-19T09:21:53.441Z,1011.4
2017-09-19T09:22:33.968Z,1011.38
2017-09-19T09:23:14.499Z,1011.36
2017-09-19T09:23:55.027Z,1011.38
2017-09-19T09:24:35.563Z,1011.37
2017-09-19T09:25:16.106Z,1011.39
2017-09-19T09:25:56.629Z,1011.38
2017-09-19T09:26:37.154Z,1011.39
2017-09-19T09:27:17.689Z,1011.39
2017-09-19T09:27:58.206Z,1011.41
2017-09-19T09:28:38.741Z,1011.43
2017-09-19T09:29:19.278Z,1011.43
2017-09-19T09:29:59.815Z,1011.44
2017-09-19T09:30:40.351Z,1011.46
2017-09-19T09:31:20.879Z,1011.43
2017-09-19T09:32:01.422Z,1011.46
2017-09-19T09:32:41.942Z,1011.44
2017-09-19T09:33:22.476Z,1011.43
2017-09-19T09:34:03.013Z,1011.45
2017-09-19T09:34:43.548Z,1011.47
2017-09-19T09:35:24.081Z,1011.45
2017-09-19T09:36:04.632Z,1011.45
2017-09-19T09:36:45.175Z,1011.47
2017-09-19T09:37:25.701Z,1011.46
2017-09-19T09:38:06.243Z,1011.45
2017-09-19T09:38:46.780Z,1011.47
2017-09-19T09:39:27.319Z,1011.47
2017-09-19T09:40:07.860Z,1011.48
2017-09-19T09:40:48.398Z,1011.49
2017-09-19T09:41:28.940Z,1011.47
2017-09-19T09:42:09.479Z,1011.47
2017-09-19T09:42:50.021Z,1011.46
2017-09-19T09:43:30.578Z,1011.5
2017-09-19T09:44:11.117Z,1011.49
2017-09-19T09:44:51.652Z,1011.5
2017-09-19T09:45:32.186Z,1011.5
2017-09-19T09:46:12.724Z,1011.47
2017-09-19T09:46:53.249Z,1011.48
2017-09-19T09:47:33.786Z,1011.49
2017-09-19T09:48:14.326Z,1011.49
2017-09-19T09:48:54.843Z,1011.46
2017-09-19T09:49:35.377Z,1011.45
2017-09-19T09:50:15.902Z,1011.49
2017-09-19T09:50:56.430Z,1011.46
2017-09-19T09:51:36.959Z,1011.49
2017-09-19T09:52:17.496Z,1011.5
2017-09-19T09:52:58.025Z,1011.5
2017-09-19T09:53:38.571Z,1011.55
2017-09-19T09:54:19.111Z,1011.51
2017-09-19T09:54:59.640Z,1011.49
2017-09-19T09:55:40.177Z,1011.52
2017-09-19T09:56:20.702Z,1011.53
2017-09-19T09:57:01.222Z,1011.5
2017-09-19T09:57:41.756Z,1011.52
2017-09-19T09:58:22.286Z,1011.56
2017-09-19T09:59:02.819Z,1011.55
2017-09-19T09:59:43.361Z,1011.52
2017-09-19T10:00:23.897Z,1011.52
2017-09-19T10:01:04.439Z,1011.52
2017-09-19T10:01:44.963Z,1011.54
2017-09-19T10:02:25.518Z,1011.56
2017-09-19T10:03:06.058Z,1011.57
2017-09-19T10:03:46.603Z,1011.64
2017-09-19T10:04:27.135Z,1011.54
2017-09-19T10:05:07.673Z,1011.58
2017-09-19T10:05:48.201Z,1011.54
2017-09-19T10:06:28.744Z,1011.61
2017-09-19T10:07:09.287Z,1011.57
2017-09-19T10:07:49.826Z,1011.58
2017-09-19T10:08:30.363Z,1011.57
2017-09-19T10:09:10.903Z,1011.49
2017-09-19T10:09:51.437Z,1011.48
2017-09-19T10:10:31.971Z,1011.49
2017-09-19T10:11:12.512Z,1011.45
2017-09-19T10:11:53.056Z,1011.48
2017-09-19T10:12:33.588Z,1011.48
2017-09-19T10:13:14.126Z,1011.51
2017-09-19T10:13:54.666Z,1011.53
2017-09-19T10:14:35.196Z,1011.5
2017-09-19T10:15:15.737Z,1011.47
2017-09-19T10:15:56.277Z,1011.44
2017-09-19T10:16:36.798Z,1011.43
2017-09-19T10:17:17.333Z,1011.43
2017-09-19T10:17:57.870Z,1011.48
2017-09-19T10:18:38.411Z,1011.45
2017-09-19T10:19:18.949Z,1011.53
2017-09-19T10:19:59.492Z,1011.45
2017-09-19T10:20:40.034Z,1011.5
2017-09-19T10:21:20.565Z,1011.54
2017-09-19T10:22:01.110Z,1011.51
2017-09-19T10:22:41.649Z,1011.47
2017-09-19T10:23:22.200Z,1011.44
2017-09-19T10:24:02.746Z,1011.41
2017-09-19T10:24:43.266Z,1011.5
2017-09-19T10:25:23.791Z,1011.42
2017-09-19T10:26:04.311Z,1011.47
2017-09-19T10:26:44.852Z,1011.41
2017-09-19T10:27:25.393Z,1011.46
2017-09-19T10:28:05.923Z,1011.47
2017-09-19T10:28:46.438Z,1011.53
2017-09-19T10:29:26.979Z,1011.48
2017-09-19T10:30:07.521Z,1011.53
2017-09-19T10:30:48.064Z,1011.52
2017-09-19T10:31:28.604Z,1011.55
2017-09-19T10:32:09.144Z,1011.56
2017-09-19T10:32:49.683Z,1011.52
2017-09-19T10:33:30.225Z,1011.55
2017-09-19T10:34:10.763Z,1011.52
2017-09-19T10:34:51.298Z,1011.51
2017-09-19T10:35:31.837Z,1011.53
2017-09-19T10:36:12.361Z,1011.53
2017-09-19T10:36:52.913Z,1011.54
2017-09-19T10:37:33.458Z,1011.52
2017-09-19T10:38:13.996Z,1011.49
2017-09-19T10:38:54.543Z,1011.5
2017-09-19T10:39:35.073Z,1011.51
2017-09-19T10:40:15.610Z,1011.52
2017-09-19T10:40:56.141Z,1011.49
2017-09-19T10:41:36.684Z,1011.55
2017-09-19T10:42:17.220Z,1011.54
2017-09-19T10:42:57.752Z,1011.51
2017-09-19T10:43:38.286Z,1011.59
2017-09-19T10:44:18.807Z,1011.57
2017-09-19T10:44:59.349Z,1011.6
2017-09-19T10:45:39.886Z,1011.59
2017-09-19T10:46:20.427Z,1011.6
2017-09-19T10:47:00.965Z,1011.6
2017-09-19T10:47:41.498Z,1011.6
2017-09-19T10:48:22.045Z,1011.65
2017-09-19T10:49:02.571Z,1011.6
2017-09-19T10:49:43.106Z,1011.61
2017-09-19T10:50:23.631Z,1011.63
2017-09-19T10:51:04.175Z,1011.64
2017-09-19T10:51:44.720Z,1011.65
2017-09-19T10:52:25.256Z,1011.66
2017-09-19T10:53:05.801Z,1011.65
2017-09-19T10:53:46.331Z,1011.65
2017-09-19T10:54:26.860Z,1011.64
2017-09-19T10:55:07.405Z,1011.68
2017-09-19T10:55:47.943Z,1011.67
2017-09-19T10:56:28.479Z,1011.71
2017-09-19T10:57:09.019Z,1011.72
2017-09-19T10:57:49.548Z,1011.68
2017-09-19T10:58:30.089Z,1011.76
2017-09-19T10:59:10.629Z,1011.74
2017-09-19T10:59:51.145Z,1011.75
2017-09-19T11:00:31.690Z,1011.75
2017-09-19T11:01:12.223Z,1011.75
2017-09-19T11:01:52.769Z,1011.76
2017-09-19T11:02:33.309Z,1011.77
2017-09-19T11:03:13.849Z,1011.75
2017-09-19T11:03:54.399Z,1011.75
2017-09-19T11:04:34.912Z,1011.8
2017-09-19T11:05:15.451Z,1011.78
2017-09-19T11:05:55.982Z,1011.79
2017-09-19T11:06:36.520Z,1011.79
2017-09-19T11:07:17.055Z,1011.76
2017-09-19T11:07:57.588Z,1011.75
2017-09-19T11:08:38.140Z,1011.78
2017-09-19T11:09:18.644Z,1011.71
2017-09-19T11:09:59.184Z,1011.74
2017-09-19T11:10:39.721Z,1011.74
2017-09-19T11:11:20.261Z,1011.73
2017-09-19T11:12:00.802Z,1011.77
2017-09-19T11:12:41.343Z,1011.79
2017-09-19T11:13:21.863Z,1011.75
2017-09-19T11:14:02.407Z,1011.77
2017-09-19T11:14:42.940Z,1011.81
2017-09-19T11:15:23.485Z,1011.81
2017-09-19T11:16:04.022Z,1011.79
2017-09-19T11:16:44.560Z,1011.82
2017-09-19T11:17:25.122Z,1011.84
2017-09-19T11:18:05.659Z,1011.86
2017-09-19T11:18:46.197Z,1011.82
2017-09-19T11:19:26.720Z,1011.81
2017-09-19T11:20:07.268Z,1011.84
2017-09-19T11:20:47.802Z,1011.83
2017-09-19T11:21:28.341Z,1011.84
2017-09-19T11:22:08.883Z,1011.83
2017-09-19T11:22:49.416Z,1011.77
2017-09-19T11:23:29.960Z,1011.79
2017-09-19T11:24:10.487Z,1011.82
2017-09-19T11:24:51.014Z,1011.84
2017-09-19T11:25:31.559Z,1011.87
2017-09-19T11:26:12.097Z,1011.84
2017-09-19T11:26:52.635Z,1011.83
2017-09-19T11:27:33.175Z,1011.8
2017-09-19T11:28:13.708Z,1011.81
2017-09-19T11:28:54.245Z,1011.87
2017-09-19T11:29:34.781Z,1011.85
2017-09-19T11:30:15.313Z,1011.91
2017-09-19T11:30:55.874Z,1011.86
2017-09-19T11:31:36.407Z,1011.85
2017-09-19T11:32:16.961Z,1011.86
2017-09-19T11:32:57.490Z,1011.89
2017-09-19T11:33:38.035Z,1011.86
2017-09-19T11:34:18.582Z,1011.91
2017-09-19T11:34:59.110Z,1011.86
2017-09-19T11:35:39.629Z,1011.86
2017-09-19T11:36:20.161Z,1011.88
2017-09-19T11:37:00.697Z,1011.91
2017-09-19T11:37:41.234Z,1011.9
2017-09-19T11:38:22.081Z,1011.9
2017-09-19T11:39:02.474Z,1011.88
2017-09-19T11:39:43.019Z,1011.9
2017-09-19T11:40:23.565Z,1011.9
2017-09-19T11:41:04.104Z,1011.87
2017-09-19T11:41:44.637Z,1011.94
2017-09-19T11:42:25.230Z,1011.94
2017-09-19T11:43:05.774Z,1011.93
2017-09-19T11:43:46.588Z,1011.95
2017-09-19T11:44:27.256Z,1011.95
2017-09-19T11:45:08.214Z,1011.97
2017-09-19T11:45:48.851Z,1011.99
2017-09-19T11:46:29.819Z,1011.95
2017-09-19T11:47:11.760Z,1011.96
2017-09-19T11:47:52.734Z,1011.93
2017-09-19T11:48:33.763Z,1011.95
2017-09-19T11:49:14.320Z,1011.96
2017-09-19T11:49:54.841Z,1011.97
2017-09-19T11:50:36.431Z,1011.97
2017-09-19T11:51:17.094Z,1011.96
2017-09-19T11:51:57.974Z,1011.95
2017-09-19T11:52:38.972Z,1011.93
2017-09-19T11:53:19.979Z,1011.95
2017-09-19T11:54:01.165Z,1011.96
2017-09-19T11:54:41.690Z,1011.98
2017-09-19T11:55:22.215Z,1012.01
2017-09-19T11:56:03.077Z,1011.96
2017-09-19T11:56:43.678Z,1011.99
2017-09-19T11:57:25.278Z,1012.01
2017-09-19T11:58:06.063Z,1012.03
2017-09-19T11:58:47.956Z,1012
2017-09-19T11:59:28.623Z,1012.03
2017-09-19T12:00:09.312Z,1012.01
2017-09-19T12:00:49.849Z,1012.02
2017-09-19T12:01:30.379Z,1012.04
2017-09-19T12:02:11.068Z,1012.03
2017-09-19T12:02:51.785Z,1012.03
2017-09-19T12:03:32.306Z,1012.01
2017-09-19T12:04:12.968Z,1012.02
2017-09-19T12:04:53.560Z,1012.07
2017-09-19T12:05:34.143Z,1012.03
2017-09-19T12:06:14.763Z,1012.05
2017-09-19T12:06:55.546Z,1012.04
2017-09-19T12:07:36.488Z,1012.04
2017-09-19T12:08:17.396Z,1012.02
2017-09-19T12:08:58.157Z,1012.04
2017-09-19T12:09:38.881Z,1012.04
2017-09-19T12:10:20.491Z,1012.02
2017-09-19T12:11:01.871Z,1012.01
2017-09-19T12:11:44.512Z,1012.05
2017-09-19T12:12:25.664Z,1012.02
2017-09-19T12:13:06.187Z,1012.04
2017-09-19T12:13:46.840Z,1012.04
2017-09-19T12:14:27.666Z,1012.07
2017-09-19T12:15:08.245Z,1012.08
2017-09-19T12:15:48.783Z,1012.08
2017-09-19T12:16:29.492Z,1012.09
2017-09-19T12:17:10.080Z,1012.05
2017-09-19T12:17:50.626Z,1012.06
2017-09-19T12:18:31.754Z,1012.07
2017-09-19T12:19:12.874Z,1012.05
2017-09-19T12:19:53.382Z,1012.05
2017-09-19T12:20:33.893Z,1012.07
2017-09-19T12:21:14.428Z,1012.09
2017-09-19T12:21:55.491Z,1012.07
2017-09-19T12:22:36.049Z,1012.09
2017-09-19T12:23:17.310Z,1012.07
2017-09-19T12:23:57.828Z,1012.09
2017-09-19T12:24:38.396Z,1012.11
2017-09-19T12:25:19.026Z,1012.11
2017-09-19T12:25:59.635Z,1012.1
2017-09-19T12:26:40.180Z,1012.12
2017-09-19T12:27:20.713Z,1012.09
2017-09-19T12:28:01.248Z,1012.1
2017-09-19T12:28:41.785Z,1012.13
2017-09-19T12:29:22.317Z,1012.13
2017-09-19T12:30:02.849Z,1012.15
2017-09-19T12:30:43.374Z,1012.13
2017-09-19T12:31:23.907Z,1012.18
2017-09-19T12:32:04.446Z,1012.15
2017-09-19T12:32:44.973Z,1012.18
2017-09-19T12:33:25.559Z,1012.19
2017-09-19T12:34:06.081Z,1012.22
2017-09-19T12:34:46.597Z,1012.19
2017-09-19T12:35:27.132Z,1012.27
2017-09-19T12:36:07.660Z,1012.23
2017-09-19T12:36:48.200Z,1012.25
2017-09-19T12:37:28.718Z,1012.23
2017-09-19T12:38:09.255Z,1012.23
2017-09-19T12:38:49.788Z,1012.22
2017-09-19T12:39:30.326Z,1012.23
2017-09-19T12:40:10.863Z,1012.25
2017-09-19T12:40:51.398Z,1012.22
2017-09-19T12:41:31.930Z,1012.25
2017-09-19T12:42:12.466Z,1012.22
2017-09-19T12:42:53.009Z,1012.24
2017-09-19T12:43:33.529Z,1012.23
2017-09-19T12:44:14.068Z,1012.3
2017-09-19T12:44:54.609Z,1012.23
2017-09-19T12:45:35.144Z,1012.24
2017-09-19T12:46:15.663Z,1012.23
2017-09-19T12:46:56.205Z,1012.23
2017-09-19T12:47:36.742Z,1012.28
2017-09-19T12:48:17.279Z,1012.27
2017-09-19T12:48:57.820Z,1012.26
2017-09-19T12:49:38.399Z,1012.25
2017-09-19T12:50:18.944Z,1012.24
2017-09-19T12:50:59.478Z,1012.28
2017-09-19T12:51:40.022Z,1012.25
2017-09-19T12:52:20.562Z,1012.25
2017-09-19T12:53:01.090Z,1012.29
2017-09-19T12:53:41.627Z,1012.24
2017-09-19T12:54:22.162Z,1012.23
2017-09-19T12:55:02.704Z,1012.2
2017-09-19T12:55:43.292Z,1012.25
2017-09-19T12:56:23.829Z,1012.21
2017-09-19T12:57:04.363Z,1012.22
2017-09-19T12:57:44.904Z,1012.23
2017-09-19T12:58:25.438Z,1012.25
2017-09-19T12:59:05.981Z,1012.21
2017-09-19T12:59:46.525Z,1012.2
2017-09-19T13:00:27.066Z,1012.21
2017-09-19T13:01:07.600Z,1012.18
2017-09-19T13:01:48.129Z,1012.17
2017-09-19T13:02:28.668Z,1012.14
2017-09-19T13:03:09.209Z,1012.2
2017-09-19T13:03:49.741Z,1012.17
2017-09-19T13:04:30.275Z,1012.16
2017-09-19T13:05:10.811Z,1012.16
2017-09-19T13:05:51.340Z,1012.18
2017-09-19T13:06:31.884Z,1012.18
2017-09-19T13:07:12.456Z,1012.2
2017-09-19T13:07:52.995Z,1012.16
2017-09-19T13:08:33.524Z,1012.2
2017-09-19T13:09:14.064Z,1012.18
2017-09-19T13:09:54.602Z,1012.17
2017-09-19T13:10:35.152Z,1012.18
2017-09-19T13:11:15.689Z,1012.17
2017-09-19T13:11:56.228Z,1012.16
2017-09-19T13:12:36.771Z,1012.19
2017-09-19T13:13:17.297Z,1012.17
2017-09-19T13:13:57.840Z,1012.18
2017-09-19T13:14:38.375Z,1012.16
2017-09-19T13:15:18.919Z,1012.17
2017-09-19T13:15:59.458Z,1012.14
2017-09-19T13:16:40.002Z,1012.15
2017-09-19T13:17:20.530Z,1012.14
2017-09-19T13:18:01.064Z,1012.13
2017-09-19T13:18:41.599Z,1012.15
2017-09-19T13:19:22.142Z,1012.14
2017-09-19T13:20:02.676Z,1012.14
2017-09-19T13:20:43.214Z,1012.14
2017-09-19T13:21:23.752Z,1012.13
2017-09-19T13:22:04.338Z,1012.15
2017-09-19T13:22:44.876Z,1012.11
2017-09-19T13:23:25.417Z,1012.09
2017-09-19T13:24:05.966Z,1012.13
2017-09-19T13:24:46.521Z,1012.14
2017-09-19T13:25:27.043Z,1012.13
2017-09-19T13:26:07.572Z,1012.14
2017-09-19T13:26:48.101Z,1012.15
2017-09-19T13:27:28.629Z,1012.14
2017-09-19T13:28:09.133Z,1012.15
2017-09-19T13:28:49.654Z,1012.13
2017-09-19T13:29:30.182Z,1012.11
2017-09-19T13:30:10.720Z,1012.16
2017-09-19T13:30:51.229Z,1012.12
2017-09-19T13:31:31.752Z,1012.12
2017-09-19T13:32:12.285Z,1012.11
2017-09-19T13:32:52.821Z,1012.14
2017-09-19T13:33:33.354Z,1012.19
2017-09-19T13:34:13.874Z,1012.16
2017-09-19T13:34:54.406Z,1012.13
2017-09-19T13:35:34.927Z,1012.13
2017-09-19T13:36:15.461Z,1012.17
2017-09-19T13:36:55.980Z,1012.08
2017-09-19T13:37:36.540Z,1012.16
2017-09-19T13:38:17.058Z,1012.21
2017-09-19T13:38:57.591Z,1012.19
2017-09-19T13:39:38.124Z,1012.14
2017-09-19T13:40:18.666Z,1012.19
2017-09-19T13:40:59.205Z,1012.14
2017-09-19T13:41:39.724Z,1012.12
2017-09-19T13:42:20.253Z,1012.13
2017-09-19T13:43:00.794Z,1012.16
2017-09-19T13:43:41.379Z,1012.13
2017-09-19T13:44:21.918Z,1012.16
2017-09-19T13:45:02.445Z,1012.16
2017-09-19T13:45:42.993Z,1012.18
2017-09-19T13:46:23.532Z,1012.19
2017-09-19T13:47:04.075Z,1012.16
2017-09-19T13:47:44.614Z,1012.16
2017-09-19T13:48:25.144Z,1012.16
2017-09-19T13:49:05.668Z,1012.17
2017-09-19T13:49:46.208Z,1012.15
2017-09-19T13:50:26.751Z,1012.1
2017-09-19T13:51:07.288Z,1012.15
2017-09-19T13:51:47.828Z,1012.14
2017-09-19T13:52:28.354Z,1012.14
2017-09-19T13:53:08.889Z,1012.16
2017-09-19T13:53:49.421Z,1012.14
2017-09-19T13:54:29.951Z,1012.13
2017-09-19T13:55:10.499Z,1012.12
2017-09-19T13:55:51.039Z,1012.12
2017-09-19T13:56:31.580Z,1012.09
2017-09-19T13:57:12.108Z,1012.11
2017-09-19T13:57:52.616Z,1012.07
2017-09-19T13:58:33.160Z,1012.09
2017-09-19T13:59:13.689Z,1012.08
2017-09-19T13:59:54.213Z,1012.06
2017-09-19T14:00:34.746Z,1012.05
2017-09-19T14:01:15.261Z,1012.05
2017-09-19T14:01:55.786Z,1012.08
2017-09-19T14:02:36.331Z,1012.05
2017-09-19T14:03:16.881Z,1012.04
2017-09-19T14:03:57.414Z,1012.04
2017-09-19T14:04:37.935Z,1012.07
2017-09-19T14:05:18.477Z,1012.09